sensor_id;sensor_type;location;lat;lon;timestamp;pressure;altitude;pressure_sealevel;temperature;humidity
84374;BME280;74563;52.206;14.630;2024-01-30T00:01:43;102774.75;;;10.30;46.75
84374;BME280;74563;52.206;14.630;2024-01-30T00:04:09;102769.66;;;10.27;46.50
84374;BME280;74563;52.206;14.630;2024-01-30T00:06:34;102766.53;;;9.18;48.27
84374;BME280;74563;52.206;14.630;2024-01-30T00:08:59;102737.78;;;9.50;47.77
84374;BME280;74563;52.206;14.630;2024-01-30T00:11:24;102755.91;;;10.21;46.28
84374;BME280;74563;52.206;14.630;2024-01-30T00:13:54;102756.81;;;10.45;45.66
84374;BME280;74563;52.206;14.630;2024-01-30T00:16:22;102744.47;;;11.04;44.25
84374;BME280;74563;52.206;14.630;2024-01-30T00:18:49;102763.03;;;11.40;43.33
84374;BME280;74563;52.206;14.630;2024-01-30T00:21:14;102686.97;;;10.89;44.14
84374;BME280;74563;52.206;14.630;2024-01-30T00:23:39;102755.22;;;11.26;43.81
84374;BME280;74563;52.206;14.630;2024-01-30T00:26:04;102742.06;;;11.12;44.24
84374;BME280;74563;52.206;14.630;2024-01-30T00:28:30;102764.16;;;11.49;44.17
84374;BME280;74563;52.206;14.630;2024-01-30T00:30:55;102762.72;;;11.91;42.59
84374;BME280;74563;52.206;14.630;2024-01-30T00:33:20;102757.97;;;11.48;43.88
84374;BME280;74563;52.206;14.630;2024-01-30T00:35:46;102746.19;;;11.75;43.00
84374;BME280;74563;52.206;14.630;2024-01-30T00:38:12;102726.88;;;11.36;43.40
84374;BME280;74563;52.206;14.630;2024-01-30T00:40:37;102741.25;;;11.57;43.43
84374;BME280;74563;52.206;14.630;2024-01-30T00:43:02;102741.09;;;11.37;43.79
84374;BME280;74563;52.206;14.630;2024-01-30T00:45:28;102741.69;;;10.58;46.20
84374;BME280;74563;52.206;14.630;2024-01-30T00:47:53;102751.72;;;10.42;46.78
84374;BME280;74563;52.206;14.630;2024-01-30T00:50:18;102755.63;;;10.62;46.86
84374;BME280;74563;52.206;14.630;2024-01-30T00:52:43;102755.63;;;10.49;46.44
84374;BME280;74563;52.206;14.630;2024-01-30T00:55:10;102757.88;;;11.26;44.73
84374;BME280;74563;52.206;14.630;2024-01-30T00:57:35;102746.75;;;11.32;43.89
84374;BME280;74563;52.206;14.630;2024-01-30T01:00:00;102753.00;;;9.86;47.75
84374;BME280;74563;52.206;14.630;2024-01-30T01:02:26;102734.50;;;9.97;48.17
84374;BME280;74563;52.206;14.630;2024-01-30T01:04:51;102750.66;;;10.06;47.48
84374;BME280;74563;52.206;14.630;2024-01-30T01:07:16;102759.72;;;11.02;46.17
84374;BME280;74563;52.206;14.630;2024-01-30T01:09:41;102746.50;;;10.28;47.11
84374;BME280;74563;52.206;14.630;2024-01-30T01:12:07;102730.78;;;11.43;44.48
84374;BME280;74563;52.206;14.630;2024-01-30T01:14:32;102748.16;;;11.14;44.56
84374;BME280;74563;52.206;14.630;2024-01-30T01:16:57;102753.38;;;9.29;48.40
84374;BME280;74563;52.206;14.630;2024-01-30T01:19:22;102760.06;;;9.22;49.04
84374;BME280;74563;52.206;14.630;2024-01-30T01:21:48;102759.81;;;8.86;50.10
84374;BME280;74563;52.206;14.630;2024-01-30T01:24:13;102756.56;;;8.40;51.01
84374;BME280;74563;52.206;14.630;2024-01-30T01:26:38;102754.53;;;8.72;51.04
84374;BME280;74563;52.206;14.630;2024-01-30T01:29:04;102756.56;;;8.12;52.64
84374;BME280;74563;52.206;14.630;2024-01-30T01:31:38;102757.84;;;7.76;53.40
84374;BME280;74563;52.206;14.630;2024-01-30T01:34:12;102753.25;;;8.08;52.51
84374;BME280;74563;52.206;14.630;2024-01-30T01:36:38;102780.66;;;8.37;52.47
84374;BME280;74563;52.206;14.630;2024-01-30T01:39:04;102747.53;;;8.56;51.18
84374;BME280;74563;52.206;14.630;2024-01-30T01:41:30;102760.00;;;9.10;49.64
84374;BME280;74563;52.206;14.630;2024-01-30T01:43:56;102752.19;;;8.53;51.32
84374;BME280;74563;52.206;14.630;2024-01-30T01:46:22;102772.22;;;8.30;53.13
84374;BME280;74563;52.206;14.630;2024-01-30T01:48:47;102757.00;;;8.61;51.19
84374;BME280;74563;52.206;14.630;2024-01-30T01:51:14;102759.59;;;8.48;51.68
84374;BME280;74563;52.206;14.630;2024-01-30T01:53:39;102752.78;;;8.85;51.05
84374;BME280;74563;52.206;14.630;2024-01-30T01:56:05;102745.94;;;9.34;49.34
84374;BME280;74563;52.206;14.630;2024-01-30T01:58:31;102751.28;;;9.07;50.54
84374;BME280;74563;52.206;14.630;2024-01-30T02:00:58;102757.56;;;9.19;49.40
84374;BME280;74563;52.206;14.630;2024-01-30T02:03:24;102754.09;;;9.71;48.34
84374;BME280;74563;52.206;14.630;2024-01-30T02:05:50;102726.84;;;10.05;47.48
84374;BME280;74563;52.206;14.630;2024-01-30T02:08:16;102734.31;;;10.62;45.87
84374;BME280;74563;52.206;14.630;2024-01-30T02:10:41;102748.34;;;10.15;48.39
84374;BME280;74563;52.206;14.630;2024-01-30T02:13:07;102764.94;;;11.03;46.32
84374;BME280;74563;52.206;14.630;2024-01-30T02:15:32;102738.72;;;10.74;46.99
84374;BME280;74563;52.206;14.630;2024-01-30T02:17:57;102686.59;;;10.82;45.29
84374;BME280;74563;52.206;14.630;2024-01-30T02:20:24;102688.78;;;10.41;46.42
84374;BME280;74563;52.206;14.630;2024-01-30T02:22:52;102724.44;;;10.51;46.65
84374;BME280;74563;52.206;14.630;2024-01-30T02:25:19;102741.41;;;10.74;46.91
84374;BME280;74563;52.206;14.630;2024-01-30T02:27:45;102745.13;;;11.53;45.03
84374;BME280;74563;52.206;14.630;2024-01-30T02:30:10;102740.03;;;9.94;49.06
84374;BME280;74563;52.206;14.630;2024-01-30T02:32:36;102726.38;;;10.11;48.20
84374;BME280;74563;52.206;14.630;2024-01-30T02:35:01;102725.13;;;9.66;49.56
84374;BME280;74563;52.206;14.630;2024-01-30T02:37:26;102734.50;;;9.84;49.58
84374;BME280;74563;52.206;14.630;2024-01-30T02:39:52;102737.28;;;9.95;49.11
84374;BME280;74563;52.206;14.630;2024-01-30T02:42:17;102728.97;;;9.62;49.97
84374;BME280;74563;52.206;14.630;2024-01-30T02:44:42;102737.59;;;9.26;51.08
84374;BME280;74563;52.206;14.630;2024-01-30T02:47:07;102724.06;;;9.94;49.46
84374;BME280;74563;52.206;14.630;2024-01-30T02:49:33;102727.13;;;8.98;52.47
84374;BME280;74563;52.206;14.630;2024-01-30T02:51:58;102749.81;;;9.16;52.41
84374;BME280;74563;52.206;14.630;2024-01-30T02:54:23;102739.84;;;8.93;52.73
84374;BME280;74563;52.206;14.630;2024-01-30T02:56:49;102744.94;;;9.87;50.83
84374;BME280;74563;52.206;14.630;2024-01-30T02:59:14;102717.03;;;10.18;48.54
84374;BME280;74563;52.206;14.630;2024-01-30T03:01:45;102717.25;;;9.65;49.86
84374;BME280;74563;52.206;14.630;2024-01-30T03:04:11;102716.16;;;9.29;51.23
84374;BME280;74563;52.206;14.630;2024-01-30T03:06:37;102716.41;;;9.77;49.63
84374;BME280;74563;52.206;14.630;2024-01-30T03:09:02;102685.31;;;9.14;51.28
84374;BME280;74563;52.206;14.630;2024-01-30T03:11:28;102717.97;;;8.89;52.72
84374;BME280;74563;52.206;14.630;2024-01-30T03:13:53;102707.06;;;9.06;51.48
84374;BME280;74563;52.206;14.630;2024-01-30T03:16:18;102722.00;;;8.95;52.43
84374;BME280;74563;52.206;14.630;2024-01-30T03:18:43;102716.34;;;9.26;51.21
84374;BME280;74563;52.206;14.630;2024-01-30T03:21:09;102740.63;;;9.34;50.86
84374;BME280;74563;52.206;14.630;2024-01-30T03:23:34;102731.56;;;9.24;51.01
84374;BME280;74563;52.206;14.630;2024-01-30T03:25:59;102680.81;;;9.02;51.13
84374;BME280;74563;52.206;14.630;2024-01-30T03:28:24;102710.78;;;9.04;52.12
84374;BME280;74563;52.206;14.630;2024-01-30T03:30:50;102726.00;;;8.61;53.60
84374;BME280;74563;52.206;14.630;2024-01-30T03:33:15;102726.94;;;8.60;53.84
84374;BME280;74563;52.206;14.630;2024-01-30T03:35:40;102744.72;;;8.17;54.78
84374;BME280;74563;52.206;14.630;2024-01-30T03:38:05;102732.88;;;8.51;54.29
84374;BME280;74563;52.206;14.630;2024-01-30T03:40:31;102716.03;;;9.18;51.41
84374;BME280;74563;52.206;14.630;2024-01-30T03:42:56;102725.31;;;9.25;51.56
84374;BME280;74563;52.206;14.630;2024-01-30T03:45:21;102736.06;;;8.97;51.87
84374;BME280;74563;52.206;14.630;2024-01-30T03:47:46;102732.78;;;8.79;53.45
84374;BME280;74563;52.206;14.630;2024-01-30T03:50:12;102722.53;;;8.87;52.14
84374;BME280;74563;52.206;14.630;2024-01-30T03:52:37;102727.41;;;9.20;51.94
84374;BME280;74563;52.206;14.630;2024-01-30T03:55:02;102728.63;;;8.48;54.73
84374;BME280;74563;52.206;14.630;2024-01-30T03:57:28;102726.13;;;8.60;53.91
84374;BME280;74563;52.206;14.630;2024-01-30T03:59:53;102714.13;;;8.67;53.53
84374;BME280;74563;52.206;14.630;2024-01-30T04:02:19;102739.53;;;9.37;51.84
84374;BME280;74563;52.206;14.630;2024-01-30T04:04:44;102695.50;;;9.20;51.24
84374;BME280;74563;52.206;14.630;2024-01-30T04:07:09;102724.50;;;9.75;50.17
84374;BME280;74563;52.206;14.630;2024-01-30T04:09:34;102746.00;;;8.67;53.70
84374;BME280;74563;52.206;14.630;2024-01-30T04:12:00;102709.34;;;8.59;53.52
84374;BME280;74563;52.206;14.630;2024-01-30T04:14:28;102729.81;;;9.11;52.25
84374;BME280;74563;52.206;14.630;2024-01-30T04:16:53;102712.72;;;9.15;52.22
84374;BME280;74563;52.206;14.630;2024-01-30T04:19:18;102726.00;;;9.92;49.22
84374;BME280;74563;52.206;14.630;2024-01-30T04:21:44;102720.66;;;10.04;49.45
84374;BME280;74563;52.206;14.630;2024-01-30T04:24:09;102735.34;;;9.47;51.19
84374;BME280;74563;52.206;14.630;2024-01-30T04:26:34;102721.53;;;9.80;49.96
84374;BME280;74563;52.206;14.630;2024-01-30T04:28:59;102705.34;;;9.45;50.75
84374;BME280;74563;52.206;14.630;2024-01-30T04:31:25;102735.03;;;9.77;50.07
84374;BME280;74563;52.206;14.630;2024-01-30T04:33:50;102729.44;;;8.90;52.49
84374;BME280;74563;52.206;14.630;2024-01-30T04:36:15;102733.66;;;9.19;52.18
84374;BME280;74563;52.206;14.630;2024-01-30T04:38:40;102722.50;;;9.14;52.29
84374;BME280;74563;52.206;14.630;2024-01-30T04:41:06;102721.72;;;9.77;50.17
84374;BME280;74563;52.206;14.630;2024-01-30T04:43:31;102716.41;;;9.12;52.62
84374;BME280;74563;52.206;14.630;2024-01-30T04:45:57;102712.22;;;9.35;51.40
84374;BME280;74563;52.206;14.630;2024-01-30T04:48:22;102696.75;;;8.48;53.03
84374;BME280;74563;52.206;14.630;2024-01-30T04:50:47;102723.91;;;8.93;52.86
84374;BME280;74563;52.206;14.630;2024-01-30T04:53:12;102707.44;;;8.88;52.88
84374;BME280;74563;52.206;14.630;2024-01-30T04:55:38;102720.06;;;9.11;52.91
84374;BME280;74563;52.206;14.630;2024-01-30T04:58:03;102707.22;;;9.30;52.14
84374;BME280;74563;52.206;14.630;2024-01-30T05:00:28;102686.63;;;9.59;50.14
84374;BME280;74563;52.206;14.630;2024-01-30T05:02:56;102705.25;;;9.46;50.87
84374;BME280;74563;52.206;14.630;2024-01-30T05:05:22;102706.63;;;8.32;55.54
84374;BME280;74563;52.206;14.630;2024-01-30T05:07:47;102705.13;;;8.14;55.49
84374;BME280;74563;52.206;14.630;2024-01-30T05:10:13;102715.75;;;8.69;54.27
84374;BME280;74563;52.206;14.630;2024-01-30T05:12:41;102702.41;;;8.56;54.23
84374;BME280;74563;52.206;14.630;2024-01-30T05:15:06;102715.31;;;8.63;54.51
84374;BME280;74563;52.206;14.630;2024-01-30T05:17:32;102692.84;;;9.20;52.62
84374;BME280;74563;52.206;14.630;2024-01-30T05:19:58;102719.41;;;9.47;51.82
84374;BME280;74563;52.206;14.630;2024-01-30T05:22:23;102716.38;;;8.87;53.65
84374;BME280;74563;52.206;14.630;2024-01-30T05:24:49;102694.56;;;8.82;53.72
84374;BME280;74563;52.206;14.630;2024-01-30T05:27:14;102717.84;;;9.18;53.27
84374;BME280;74563;52.206;14.630;2024-01-30T05:29:40;102700.59;;;9.11;52.83
84374;BME280;74563;52.206;14.630;2024-01-30T05:32:06;102702.25;;;8.99;53.64
84374;BME280;74563;52.206;14.630;2024-01-30T05:34:31;102697.91;;;8.98;53.16
84374;BME280;74563;52.206;14.630;2024-01-30T05:36:57;102709.50;;;8.97;53.73
84374;BME280;74563;52.206;14.630;2024-01-30T05:39:22;102693.97;;;8.91;53.18
84374;BME280;74563;52.206;14.630;2024-01-30T05:41:47;102709.06;;;8.49;54.31
84374;BME280;74563;52.206;14.630;2024-01-30T05:44:12;102704.13;;;8.84;53.66
84374;BME280;74563;52.206;14.630;2024-01-30T05:46:38;102717.28;;;8.73;54.01
84374;BME280;74563;52.206;14.630;2024-01-30T05:49:03;102693.25;;;9.01;52.64
84374;BME280;74563;52.206;14.630;2024-01-30T05:51:28;102689.03;;;8.85;52.66
84374;BME280;74563;52.206;14.630;2024-01-30T05:53:53;102696.41;;;8.67;53.94
84374;BME280;74563;52.206;14.630;2024-01-30T05:56:19;102701.72;;;9.58;51.44
84374;BME280;74563;52.206;14.630;2024-01-30T05:58:44;102722.91;;;9.85;50.71
84374;BME280;74563;52.206;14.630;2024-01-30T06:01:09;102709.06;;;8.90;53.31
84374;BME280;74563;52.206;14.630;2024-01-30T06:03:35;102693.31;;;9.52;50.43
84374;BME280;74563;52.206;14.630;2024-01-30T06:06:00;102710.06;;;9.15;52.79
84374;BME280;74563;52.206;14.630;2024-01-30T06:08:25;102702.69;;;8.93;53.68
84374;BME280;74563;52.206;14.630;2024-01-30T06:10:51;102707.63;;;9.12;52.67
84374;BME280;74563;52.206;14.630;2024-01-30T06:13:16;102709.75;;;8.80;53.47
84374;BME280;74563;52.206;14.630;2024-01-30T06:15:41;102719.56;;;9.44;51.91
84374;BME280;74563;52.206;14.630;2024-01-30T06:18:07;102714.97;;;9.21;52.15
84374;BME280;74563;52.206;14.630;2024-01-30T06:20:32;102715.16;;;9.05;51.85
84374;BME280;74563;52.206;14.630;2024-01-30T06:22:57;102719.50;;;10.21;49.88
84374;BME280;74563;52.206;14.630;2024-01-30T06:25:22;102720.81;;;8.60;53.60
84374;BME280;74563;52.206;14.630;2024-01-30T06:27:48;102678.06;;;9.03;51.19
84374;BME280;74563;52.206;14.630;2024-01-30T06:30:13;102727.53;;;9.31;51.83
84374;BME280;74563;52.206;14.630;2024-01-30T06:32:39;102714.50;;;9.79;50.83
84374;BME280;74563;52.206;14.630;2024-01-30T06:35:05;102730.63;;;9.25;51.16
84374;BME280;74563;52.206;14.630;2024-01-30T06:37:31;102736.19;;;9.73;51.95
84374;BME280;74563;52.206;14.630;2024-01-30T06:39:56;102721.66;;;9.78;50.51
84374;BME280;74563;52.206;14.630;2024-01-30T06:42:21;102719.28;;;9.86;50.20
84374;BME280;74563;52.206;14.630;2024-01-30T06:44:46;102716.00;;;9.70;50.94
84374;BME280;74563;52.206;14.630;2024-01-30T06:47:13;102723.75;;;9.73;51.42
84374;BME280;74563;52.206;14.630;2024-01-30T06:49:38;102678.03;;;8.37;54.47
84374;BME280;74563;52.206;14.630;2024-01-30T06:52:06;102710.28;;;8.85;53.80
84374;BME280;74563;52.206;14.630;2024-01-30T06:54:32;102727.41;;;8.67;54.45
84374;BME280;74563;52.206;14.630;2024-01-30T06:56:58;102714.66;;;8.59;54.93
84374;BME280;74563;52.206;14.630;2024-01-30T06:59:23;102724.94;;;8.64;54.72
84374;BME280;74563;52.206;14.630;2024-01-30T07:01:49;102703.41;;;9.34;52.53
84374;BME280;74563;52.206;14.630;2024-01-30T07:04:14;102713.31;;;9.45;52.19
84374;BME280;74563;52.206;14.630;2024-01-30T07:06:39;102705.00;;;9.37;52.13
84374;BME280;74563;52.206;14.630;2024-01-30T07:09:04;102694.59;;;8.41;55.11
84374;BME280;74563;52.206;14.630;2024-01-30T07:11:30;102681.28;;;7.86;56.19
84374;BME280;74563;52.206;14.630;2024-01-30T07:13:56;102717.41;;;9.11;53.68
84374;BME280;74563;52.206;14.630;2024-01-30T07:16:21;102691.09;;;9.58;51.39
84374;BME280;74563;52.206;14.630;2024-01-30T07:18:47;102732.94;;;9.30;53.69
84374;BME280;74563;52.206;14.630;2024-01-30T07:21:13;102720.13;;;9.99;51.09
84374;BME280;74563;52.206;14.630;2024-01-30T07:23:38;102722.34;;;9.93;50.91
84374;BME280;74563;52.206;14.630;2024-01-30T07:26:04;102715.66;;;8.97;53.81
84374;BME280;74563;52.206;14.630;2024-01-30T07:28:30;102718.25;;;9.12;53.75
84374;BME280;74563;52.206;14.630;2024-01-30T07:30:55;102693.50;;;8.57;54.92
84374;BME280;74563;52.206;14.630;2024-01-30T07:33:20;102712.41;;;8.80;55.25
84374;BME280;74563;52.206;14.630;2024-01-30T07:35:46;102698.94;;;8.95;54.30
84374;BME280;74563;52.206;14.630;2024-01-30T07:38:11;102715.16;;;8.51;55.75
84374;BME280;74563;52.206;14.630;2024-01-30T07:40:36;102705.97;;;8.96;54.58
84374;BME280;74563;52.206;14.630;2024-01-30T07:43:01;102712.63;;;8.77;54.66
84374;BME280;74563;52.206;14.630;2024-01-30T07:45:28;102717.00;;;9.30;53.26
84374;BME280;74563;52.206;14.630;2024-01-30T07:47:57;102703.97;;;9.39;52.92
84374;BME280;74563;52.206;14.630;2024-01-30T07:50:23;102690.31;;;9.19;53.21
84374;BME280;74563;52.206;14.630;2024-01-30T07:52:48;102700.53;;;8.59;55.35
84374;BME280;74563;52.206;14.630;2024-01-30T07:55:16;102678.75;;;8.25;55.90
84374;BME280;74563;52.206;14.630;2024-01-30T07:57:41;102704.34;;;9.21;54.11
84374;BME280;74563;52.206;14.630;2024-01-30T08:00:08;102700.22;;;8.90;54.05
84374;BME280;74563;52.206;14.630;2024-01-30T08:02:33;102696.94;;;9.51;52.30
84374;BME280;74563;52.206;14.630;2024-01-30T08:04:58;102641.63;;;8.25;54.84
84374;BME280;74563;52.206;14.630;2024-01-30T08:07:24;102706.56;;;8.61;54.94
84374;BME280;74563;52.206;14.630;2024-01-30T08:09:49;102699.06;;;8.94;54.87
84374;BME280;74563;52.206;14.630;2024-01-30T08:12:15;102694.91;;;9.29;52.87
84374;BME280;74563;52.206;14.630;2024-01-30T08:14:41;102697.94;;;9.11;53.81
84374;BME280;74563;52.206;14.630;2024-01-30T08:17:06;102702.53;;;9.21;53.91
84374;BME280;74563;52.206;14.630;2024-01-30T08:19:32;102709.91;;;9.93;52.10
84374;BME280;74563;52.206;14.630;2024-01-30T08:21:57;102687.25;;;9.63;52.20
84374;BME280;74563;52.206;14.630;2024-01-30T08:24:22;102685.13;;;9.55;52.93
84374;BME280;74563;52.206;14.630;2024-01-30T08:26:48;102689.75;;;9.14;53.69
84374;BME280;74563;52.206;14.630;2024-01-30T08:29:13;102688.97;;;9.89;51.72
84374;BME280;74563;52.206;14.630;2024-01-30T08:31:38;102681.50;;;9.69;52.61
84374;BME280;74563;52.206;14.630;2024-01-30T08:34:03;102696.31;;;9.73;52.70
84374;BME280;74563;52.206;14.630;2024-01-30T08:36:29;102701.19;;;9.41;53.51
84374;BME280;74563;52.206;14.630;2024-01-30T08:38:54;102699.88;;;9.34;54.07
84374;BME280;74563;52.206;14.630;2024-01-30T08:41:19;102693.97;;;9.55;53.28
84374;BME280;74563;52.206;14.630;2024-01-30T08:43:44;102693.22;;;9.91;52.43
84374;BME280;74563;52.206;14.630;2024-01-30T08:46:11;102681.13;;;10.84;49.51
84374;BME280;74563;52.206;14.630;2024-01-30T08:48:36;102640.47;;;9.47;52.47
84374;BME280;74563;52.206;14.630;2024-01-30T08:51:01;102636.06;;;8.96;54.81
84374;BME280;74563;52.206;14.630;2024-01-30T08:53:26;102695.00;;;9.40;54.11
84374;BME280;74563;52.206;14.630;2024-01-30T08:55:52;102644.00;;;8.56;55.60
84374;BME280;74563;52.206;14.630;2024-01-30T08:58:17;102692.03;;;8.80;56.70
84374;BME280;74563;52.206;14.630;2024-01-30T09:00:44;102675.22;;;8.80;56.67
84374;BME280;74563;52.206;14.630;2024-01-30T09:03:09;102685.22;;;8.89;56.22
84374;BME280;74563;52.206;14.630;2024-01-30T09:05:34;102689.03;;;9.12;56.38
84374;BME280;74563;52.206;14.630;2024-01-30T09:08:00;102706.34;;;9.04;56.72
84374;BME280;74563;52.206;14.630;2024-01-30T09:10:25;102680.25;;;9.49;54.59
84374;BME280;74563;52.206;14.630;2024-01-30T09:12:50;102688.97;;;9.64;55.13
84374;BME280;74563;52.206;14.630;2024-01-30T09:15:16;102674.81;;;9.25;55.01
84374;BME280;74563;52.206;14.630;2024-01-30T09:17:41;102679.78;;;9.30;56.31
84374;BME280;74563;52.206;14.630;2024-01-30T09:20:06;102688.31;;;9.47;54.86
84374;BME280;74563;52.206;14.630;2024-01-30T09:22:32;102692.69;;;9.99;53.37
84374;BME280;74563;52.206;14.630;2024-01-30T09:24:57;102666.94;;;9.62;54.78
84374;BME280;74563;52.206;14.630;2024-01-30T09:27:23;102702.84;;;9.17;56.41
84374;BME280;74563;52.206;14.630;2024-01-30T09:29:48;102683.38;;;9.03;57.39
84374;BME280;74563;52.206;14.630;2024-01-30T09:32:13;102676.63;;;9.88;54.81
84374;BME280;74563;52.206;14.630;2024-01-30T09:34:39;102669.06;;;9.69;54.76
84374;BME280;74563;52.206;14.630;2024-01-30T09:37:04;102686.50;;;9.98;54.41
84374;BME280;74563;52.206;14.630;2024-01-30T09:39:30;102692.94;;;10.92;52.15
84374;BME280;74563;52.206;14.630;2024-01-30T09:44:24;102657.34;;;10.70;51.82
84374;BME280;74563;52.206;14.630;2024-01-30T09:46:50;102670.94;;;10.78;51.15
84374;BME280;74563;52.206;14.630;2024-01-30T09:49:16;102673.31;;;11.28;49.76
84374;BME280;74563;52.206;14.630;2024-01-30T09:51:44;102658.47;;;11.59;48.86
84374;BME280;74563;52.206;14.630;2024-01-30T09:54:10;102628.25;;;11.47;48.06
84374;BME280;74563;52.206;14.630;2024-01-30T09:56:38;102659.38;;;10.90;50.08
84374;BME280;74563;52.206;14.630;2024-01-30T09:59:04;102677.53;;;11.99;47.53
84374;BME280;74563;52.206;14.630;2024-01-30T10:01:29;102673.13;;;11.65;47.96
84374;BME280;74563;52.206;14.630;2024-01-30T10:03:55;102664.88;;;11.45;47.16
84374;BME280;74563;52.206;14.630;2024-01-30T10:06:21;102669.28;;;11.80;47.70
84374;BME280;74563;52.206;14.630;2024-01-30T10:08:47;102656.00;;;12.77;45.48
84374;BME280;74563;52.206;14.630;2024-01-30T10:11:12;102642.25;;;11.84;47.46
84374;BME280;74563;52.206;14.630;2024-01-30T10:13:38;102669.03;;;12.16;46.84
84374;BME280;74563;52.206;14.630;2024-01-30T10:16:04;102664.59;;;12.48;45.82
84374;BME280;74563;52.206;14.630;2024-01-30T10:18:31;102640.38;;;12.29;46.56
84374;BME280;74563;52.206;14.630;2024-01-30T10:20:57;102659.03;;;13.04;44.48
84374;BME280;74563;52.206;14.630;2024-01-30T10:23:22;102622.72;;;12.38;46.34
84374;BME280;74563;52.206;14.630;2024-01-30T10:25:47;102644.44;;;13.08;44.80
84374;BME280;74563;52.206;14.630;2024-01-30T10:28:12;102640.91;;;12.87;44.41
84374;BME280;74563;52.206;14.630;2024-01-30T10:30:38;102635.72;;;13.78;43.34
84374;BME280;74563;52.206;14.630;2024-01-30T10:33:03;102649.22;;;12.73;44.85
84374;BME280;74563;52.206;14.630;2024-01-30T10:35:28;102647.63;;;13.02;45.07
84374;BME280;74563;52.206;14.630;2024-01-30T10:37:56;102645.28;;;13.08;44.72
84374;BME280;74563;52.206;14.630;2024-01-30T10:40:27;102650.91;;;13.05;44.30
84374;BME280;74563;52.206;14.630;2024-01-30T10:42:53;102651.75;;;13.06;44.60
84374;BME280;74563;52.206;14.630;2024-01-30T10:45:22;102649.09;;;13.47;43.85
84374;BME280;74563;52.206;14.630;2024-01-30T10:47:55;102628.38;;;14.10;41.92
84374;BME280;74563;52.206;14.630;2024-01-30T10:50:24;102625.56;;;13.41;42.99
84374;BME280;74563;52.206;14.630;2024-01-30T10:52:50;102618.63;;;13.39;43.08
84374;BME280;74563;52.206;14.630;2024-01-30T10:55:16;102631.00;;;13.61;43.26
84374;BME280;74563;52.206;14.630;2024-01-30T10:57:43;102618.06;;;13.66;42.98
84374;BME280;74563;52.206;14.630;2024-01-30T11:00:10;102606.88;;;13.91;42.16
84374;BME280;74563;52.206;14.630;2024-01-30T11:02:38;102621.47;;;14.07;41.47
84374;BME280;74563;52.206;14.630;2024-01-30T11:05:05;102604.84;;;13.74;42.18
84374;BME280;74563;52.206;14.630;2024-01-30T11:07:30;102593.53;;;13.30;42.41
84374;BME280;74563;52.206;14.630;2024-01-30T11:12:26;102624.09;;;13.58;43.36
84374;BME280;74563;52.206;14.630;2024-01-30T11:15:04;102620.22;;;14.21;41.39
84374;BME280;74563;52.206;14.630;2024-01-30T11:20:15;102626.06;;;13.96;42.40
84374;BME280;74563;52.206;14.630;2024-01-30T11:22:51;102591.38;;;13.94;42.37
84374;BME280;74563;52.206;14.630;2024-01-30T11:25:18;102613.94;;;14.01;42.08
84374;BME280;74563;52.206;14.630;2024-01-30T11:27:45;102606.47;;;14.45;41.02
84374;BME280;74563;52.206;14.630;2024-01-30T11:30:11;102615.16;;;13.78;43.16
84374;BME280;74563;52.206;14.630;2024-01-30T11:32:45;102583.91;;;14.57;40.64
84374;BME280;74563;52.206;14.630;2024-01-30T11:35:11;102596.84;;;14.71;40.91
84374;BME280;74563;52.206;14.630;2024-01-30T11:37:37;102601.91;;;15.69;39.21
84374;BME280;74563;52.206;14.630;2024-01-30T11:40:04;102602.41;;;15.54;39.12
84374;BME280;74563;52.206;14.630;2024-01-30T11:42:29;102575.94;;;15.87;38.32
84374;BME280;74563;52.206;14.630;2024-01-30T11:44:55;102583.94;;;15.13;39.68
84374;BME280;74563;52.206;14.630;2024-01-30T11:47:20;102590.50;;;15.01;40.38
84374;BME280;74563;52.206;14.630;2024-01-30T11:49:45;102589.34;;;15.60;39.48
84374;BME280;74563;52.206;14.630;2024-01-30T11:52:11;102584.56;;;14.97;40.33
84374;BME280;74563;52.206;14.630;2024-01-30T11:54:39;102570.53;;;15.23;39.44
84374;BME280;74563;52.206;14.630;2024-01-30T11:57:05;102566.41;;;16.37;37.94
84374;BME280;74563;52.206;14.630;2024-01-30T11:59:30;102573.13;;;16.69;36.81
84374;BME280;74563;52.206;14.630;2024-01-30T12:01:55;102552.75;;;16.31;37.05
84374;BME280;74563;52.206;14.630;2024-01-30T12:04:20;102575.63;;;17.14;36.31
84374;BME280;74563;52.206;14.630;2024-01-30T12:06:50;102555.03;;;17.30;35.17
84374;BME280;74563;52.206;14.630;2024-01-30T12:09:16;102569.09;;;16.20;37.29
84374;BME280;74563;52.206;14.630;2024-01-30T12:11:48;102548.72;;;15.99;37.63
84374;BME280;74563;52.206;14.630;2024-01-30T12:14:16;102558.75;;;16.60;36.79
84374;BME280;74563;52.206;14.630;2024-01-30T12:16:41;102532.44;;;16.72;36.09
84374;BME280;74563;52.206;14.630;2024-01-30T12:19:07;102539.75;;;16.26;36.69
84374;BME280;74563;52.206;14.630;2024-01-30T12:21:33;102555.09;;;15.71;37.47
84374;BME280;74563;52.206;14.630;2024-01-30T12:23:59;102556.69;;;15.18;38.55
84374;BME280;74563;52.206;14.630;2024-01-30T12:26:25;102554.72;;;15.20;38.22
84374;BME280;74563;52.206;14.630;2024-01-30T12:28:50;102540.50;;;15.46;36.97
84374;BME280;74563;52.206;14.630;2024-01-30T12:31:16;102549.44;;;14.72;38.04
84374;BME280;74563;52.206;14.630;2024-01-30T12:33:41;102539.50;;;15.57;37.02
84374;BME280;74563;52.206;14.630;2024-01-30T12:36:06;102549.03;;;14.76;37.60
84374;BME280;74563;52.206;14.630;2024-01-30T12:38:32;102536.63;;;14.56;37.65
84374;BME280;74563;52.206;14.630;2024-01-30T12:40:57;102512.34;;;14.77;37.70
84374;BME280;74563;52.206;14.630;2024-01-30T12:43:26;102543.69;;;15.87;36.02
84374;BME280;74563;52.206;14.630;2024-01-30T12:45:54;102523.28;;;15.94;35.59